sensor_id;sensor_type;location;lat;lon;timestamp;temperature;humidity
15834;DHT22;8017;50.812;4.934;2022-07-05T00:02:21;16.60;99.90
15834;DHT22;8017;50.812;4.934;2022-07-05T00:05:23;16.60;99.90
15834;DHT22;8017;50.812;4.934;2022-07-05T00:08:26;16.60;99.90
15834;DHT22;8017;50.812;4.934;2022-07-05T00:11:28;16.50;99.90
15834;DHT22;8017;50.812;4.934;2022-07-05T00:14:30;16.50;99.90
15834;DHT22;8017;50.812;4.934;2022-07-05T00:17:33;16.50;99.90
15834;DHT22;8017;50.812;4.934;2022-07-05T00:20:35;16.60;99.90
15834;DHT22;8017;50.812;4.934;2022-07-05T00:23:37;16.50;99.90
15834;DHT22;8017;50.812;4.934;2022-07-05T00:26:39;16.50;99.90
15834;DHT22;8017;50.812;4.934;2022-07-05T00:29:41;16.40;99.90
15834;DHT22;8017;50.812;4.934;2022-07-05T00:32:44;16.30;99.90
15834;DHT22;8017;50.812;4.934;2022-07-05T00:35:46;16.20;99.90
15834;DHT22;8017;50.812;4.934;2022-07-05T00:38:48;16.10;99.90
15834;DHT22;8017;50.812;4.934;2022-07-05T00:41:50;16.00;99.90
15834;DHT22;8017;50.812;4.934;2022-07-05T00:44:52;15.90;99.90
15834;DHT22;8017;50.812;4.934;2022-07-05T00:47:55;15.90;99.90
15834;DHT22;8017;50.812;4.934;2022-07-05T00:50:57;16.00;99.90
15834;DHT22;8017;50.812;4.934;2022-07-05T00:54:00;15.90;99.90
15834;DHT22;8017;50.812;4.934;2022-07-05T00:57:02;15.80;99.90
15834;DHT22;8017;50.812;4.934;2022-07-05T01:00:06;15.70;99.90
15834;DHT22;8017;50.812;4.934;2022-07-05T01:03:09;15.70;99.90
15834;DHT22;8017;50.812;4.934;2022-07-05T01:06:14;15.60;99.90
15834;DHT22;8017;50.812;4.934;2022-07-05T01:09:17;15.60;99.90
15834;DHT22;8017;50.812;4.934;2022-07-05T01:12:19;15.50;99.90
15834;DHT22;8017;50.812;4.934;2022-07-05T01:15:21;15.50;99.90
15834;DHT22;8017;50.812;4.934;2022-07-05T01:18:25;15.40;99.90
15834;DHT22;8017;50.812;4.934;2022-07-05T01:21:28;15.40;99.90
15834;DHT22;8017;50.812;4.934;2022-07-05T01:24:33;15.30;99.90
15834;DHT22;8017;50.812;4.934;2022-07-05T01:27:34;15.30;99.90
15834;DHT22;8017;50.812;4.934;2022-07-05T01:30:36;15.20;99.90
15834;DHT22;8017;50.812;4.934;2022-07-05T01:33:40;15.10;99.90
15834;DHT22;8017;50.812;4.934;2022-07-05T01:36:42;15.10;99.90
15834;DHT22;8017;50.812;4.934;2022-07-05T01:39:46;15.10;99.90
15834;DHT22;8017;50.812;4.934;2022-07-05T01:42:48;15.10;99.90
15834;DHT22;8017;50.812;4.934;2022-07-05T01:45:50;15.00;99.90
15834;DHT22;8017;50.812;4.934;2022-07-05T01:48:56;14.90;99.90
15834;DHT22;8017;50.812;4.934;2022-07-05T01:52:06;14.90;99.90
15834;DHT22;8017;50.812;4.934;2022-07-05T01:55:10;14.90;99.90
15834;DHT22;8017;50.812;4.934;2022-07-05T01:58:12;14.90;99.90
15834;DHT22;8017;50.812;4.934;2022-07-05T02:01:14;14.80;99.90
15834;DHT22;8017;50.812;4.934;2022-07-05T02:04:16;14.80;99.90
15834;DHT22;8017;50.812;4.934;2022-07-05T02:07:19;14.70;99.90
15834;DHT22;8017;50.812;4.934;2022-07-05T02:10:23;14.70;99.90
15834;DHT22;8017;50.812;4.934;2022-07-05T02:13:24;14.60;99.90
15834;DHT22;8017;50.812;4.934;2022-07-05T02:16:27;14.60;99.90
15834;DHT22;8017;50.812;4.934;2022-07-05T02:19:29;14.60;99.90
15834;DHT22;8017;50.812;4.934;2022-07-05T02:22:32;14.60;99.90
15834;DHT22;8017;50.812;4.934;2022-07-05T02:25:36;14.50;99.90
15834;DHT22;8017;50.812;4.934;2022-07-05T02:28:38;14.50;99.90
15834;DHT22;8017;50.812;4.934;2022-07-05T02:31:40;14.50;99.90
15834;DHT22;8017;50.812;4.934;2022-07-05T02:34:42;14.40;99.90
15834;DHT22;8017;50.812;4.934;2022-07-05T02:37:43;14.40;99.90
15834;DHT22;8017;50.812;4.934;2022-07-05T02:40:47;14.40;99.90
15834;DHT22;8017;50.812;4.934;2022-07-05T02:43:49;14.30;99.90
15834;DHT22;8017;50.812;4.934;2022-07-05T02:46:51;14.30;99.90
15834;DHT22;8017;50.812;4.934;2022-07-05T02:49:52;14.30;99.90
15834;DHT22;8017;50.812;4.934;2022-07-05T02:52:54;14.20;99.90
15834;DHT22;8017;50.812;4.934;2022-07-05T02:55:57;14.10;99.90
15834;DHT22;8017;50.812;4.934;2022-07-05T02:58:59;14.00;99.90
15834;DHT22;8017;50.812;4.934;2022-07-05T03:02:01;13.90;99.90
15834;DHT22;8017;50.812;4.934;2022-07-05T03:05:03;14.00;99.90
15834;DHT22;8017;50.812;4.934;2022-07-05T03:08:05;14.00;99.90
15834;DHT22;8017;50.812;4.934;2022-07-05T03:11:09;14.10;99.90
15834;DHT22;8017;50.812;4.934;2022-07-05T03:14:11;14.10;99.90
15834;DHT22;8017;50.812;4.934;2022-07-05T03:17:15;14.10;99.90
15834;DHT22;8017;50.812;4.934;2022-07-05T03:20:17;14.10;99.90
15834;DHT22;8017;50.812;4.934;2022-07-05T03:23:19;14.00;99.90
15834;DHT22;8017;50.812;4.934;2022-07-05T03:26:22;14.00;99.90
15834;DHT22;8017;50.812;4.934;2022-07-05T03:29:24;14.10;99.90
15834;DHT22;8017;50.812;4.934;2022-07-05T03:32:26;14.00;99.90
15834;DHT22;8017;50.812;4.934;2022-07-05T03:35:28;13.90;99.90
15834;DHT22;8017;50.812;4.934;2022-07-05T03:38:30;13.90;99.90
15834;DHT22;8017;50.812;4.934;2022-07-05T03:41:33;13.90;99.90
15834;DHT22;8017;50.812;4.934;2022-07-05T03:44:35;13.90;99.90
15834;DHT22;8017;50.812;4.934;2022-07-05T03:47:37;14.00;99.90
15834;DHT22;8017;50.812;4.934;2022-07-05T03:50:39;14.00;99.90
15834;DHT22;8017;50.812;4.934;2022-07-05T03:53:40;14.00;99.90
15834;DHT22;8017;50.812;4.934;2022-07-05T03:56:44;14.10;99.90
15834;DHT22;8017;50.812;4.934;2022-07-05T03:59:46;14.10;99.90
15834;DHT22;8017;50.812;4.934;2022-07-05T04:02:47;14.20;99.90
15834;DHT22;8017;50.812;4.934;2022-07-05T04:05:49;14.20;99.90
15834;DHT22;8017;50.812;4.934;2022-07-05T04:08:51;14.30;99.90
15834;DHT22;8017;50.812;4.934;2022-07-05T04:11:54;14.40;99.90
15834;DHT22;8017;50.812;4.934;2022-07-05T04:14:56;14.60;99.90
15834;DHT22;8017;50.812;4.934;2022-07-05T04:17:58;15.60;99.90
15834;DHT22;8017;50.812;4.934;2022-07-05T04:21:00;17.00;99.90
15834;DHT22;8017;50.812;4.934;2022-07-05T04:24:02;18.20;99.90
15834;DHT22;8017;50.812;4.934;2022-07-05T04:27:06;19.20;99.90
15834;DHT22;8017;50.812;4.934;2022-07-05T04:30:09;19.60;99.90
15834;DHT22;8017;50.812;4.934;2022-07-05T04:33:11;19.90;99.90
15834;DHT22;8017;50.812;4.934;2022-07-05T04:36:13;19.70;99.90
15834;DHT22;8017;50.812;4.934;2022-07-05T04:39:15;19.70;99.90
15834;DHT22;8017;50.812;4.934;2022-07-05T04:42:18;19.90;99.90
15834;DHT22;8017;50.812;4.934;2022-07-05T04:45:20;20.50;99.90
15834;DHT22;8017;50.812;4.934;2022-07-05T04:48:22;20.80;99.90
15834;DHT22;8017;50.812;4.934;2022-07-05T04:51:24;20.80;99.90
15834;DHT22;8017;50.812;4.934;2022-07-05T04:54:26;20.90;99.90
15834;DHT22;8017;50.812;4.934;2022-07-05T04:57:36;21.10;99.90
15834;DHT22;8017;50.812;4.934;2022-07-05T05:00:38;21.30;99.90
15834;DHT22;8017;50.812;4.934;2022-07-05T05:03:40;21.30;99.90
15834;DHT22;8017;50.812;4.934;2022-07-05T05:06:42;20.60;99.90
15834;DHT22;8017;50.812;4.934;2022-07-05T05:09:43;19.20;99.90
15834;DHT22;8017;50.812;4.934;2022-07-05T05:12:47;18.10;99.90
15834;DHT22;8017;50.812;4.934;2022-07-05T05:15:48;17.50;99.90
15834;DHT22;8017;50.812;4.934;2022-07-05T05:18:50;17.10;99.90
15834;DHT22;8017;50.812;4.934;2022-07-05T05:21:52;16.90;99.90
15834;DHT22;8017;50.812;4.934;2022-07-05T05:24:54;16.70;99.90
15834;DHT22;8017;50.812;4.934;2022-07-05T05:27:57;16.80;99.90
15834;DHT22;8017;50.812;4.934;2022-07-05T05:30:59;16.70;99.90
15834;DHT22;8017;50.812;4.934;2022-07-05T05:34:01;16.60;99.90
15834;DHT22;8017;50.812;4.934;2022-07-05T05:37:03;16.50;99.90
15834;DHT22;8017;50.812;4.934;2022-07-05T05:40:06;16.50;99.90
15834;DHT22;8017;50.812;4.934;2022-07-05T05:43:10;16.60;99.90
15834;DHT22;8017;50.812;4.934;2022-07-05T05:46:12;16.70;99.90
15834;DHT22;8017;50.812;4.934;2022-07-05T05:49:13;16.80;99.90
15834;DHT22;8017;50.812;4.934;2022-07-05T05:52:15;16.90;99.90
15834;DHT22;8017;50.812;4.934;2022-07-05T05:55:18;17.00;99.90
15834;DHT22;8017;50.812;4.934;2022-07-05T05:58:22;17.20;99.90
15834;DHT22;8017;50.812;4.934;2022-07-05T06:01:25;17.30;99.90
15834;DHT22;8017;50.812;4.934;2022-07-05T06:04:26;17.60;99.90
15834;DHT22;8017;50.812;4.934;2022-07-05T06:07:28;17.60;99.90
15834;DHT22;8017;50.812;4.934;2022-07-05T06:10:32;17.70;99.90
15834;DHT22;8017;50.812;4.934;2022-07-05T06:13:36;17.80;99.90
15834;DHT22;8017;50.812;4.934;2022-07-05T06:16:37;17.90;99.90
15834;DHT22;8017;50.812;4.934;2022-07-05T06:19:39;18.00;99.90
15834;DHT22;8017;50.812;4.934;2022-07-05T06:22:42;18.20;99.90
15834;DHT22;8017;50.812;4.934;2022-07-05T06:25:44;18.30;99.90
15834;DHT22;8017;50.812;4.934;2022-07-05T06:28:47;18.50;99.90
15834;DHT22;8017;50.812;4.934;2022-07-05T06:31:50;18.60;99.90
15834;DHT22;8017;50.812;4.934;2022-07-05T06:34:52;18.60;99.90
15834;DHT22;8017;50.812;4.934;2022-07-05T06:37:55;18.60;99.90
15834;DHT22;8017;50.812;4.934;2022-07-05T06:40:59;18.70;99.90
15834;DHT22;8017;50.812;4.934;2022-07-05T06:44:03;18.70;99.90
15834;DHT22;8017;50.812;4.934;2022-07-05T06:47:04;18.70;99.90
15834;DHT22;8017;50.812;4.934;2022-07-05T06:50:07;18.80;99.90
15834;DHT22;8017;50.812;4.934;2022-07-05T06:53:11;18.70;99.90
15834;DHT22;8017;50.812;4.934;2022-07-05T06:56:13;18.80;99.90
15834;DHT22;8017;50.812;4.934;2022-07-05T06:59:16;18.90;99.90
15834;DHT22;8017;50.812;4.934;2022-07-05T07:02:18;19.10;99.90
15834;DHT22;8017;50.812;4.934;2022-07-05T07:05:21;19.30;99.90
15834;DHT22;8017;50.812;4.934;2022-07-05T07:08:23;19.30;99.90
15834;DHT22;8017;50.812;4.934;2022-07-05T07:11:42;19.30;99.90
15834;DHT22;8017;50.812;4.934;2022-07-05T07:14:46;19.40;99.90
15834;DHT22;8017;50.812;4.934;2022-07-05T07:17:48;19.60;99.90
15834;DHT22;8017;50.812;4.934;2022-07-05T07:20:50;19.70;99.90
15834;DHT22;8017;50.812;4.934;2022-07-05T07:23:51;20.20;99.90
15834;DHT22;8017;50.812;4.934;2022-07-05T07:26:53;20.40;99.90
15834;DHT22;8017;50.812;4.934;2022-07-05T07:30:07;20.60;99.90
15834;DHT22;8017;50.812;4.934;2022-07-05T07:33:09;20.90;99.90
15834;DHT22;8017;50.812;4.934;2022-07-05T07:36:11;21.20;99.90
15834;DHT22;8017;50.812;4.934;2022-07-05T07:39:13;21.40;99.90
15834;DHT22;8017;50.812;4.934;2022-07-05T07:42:15;21.20;99.90
15834;DHT22;8017;50.812;4.934;2022-07-05T07:45:18;21.30;99.90
15834;DHT22;8017;50.812;4.934;2022-07-05T07:48:20;21.00;99.90
15834;DHT22;8017;50.812;4.934;2022-07-05T07:51:22;20.90;99.90
15834;DHT22;8017;50.812;4.934;2022-07-05T07:54:24;20.90;99.90
15834;DHT22;8017;50.812;4.934;2022-07-05T07:57:26;20.80;99.90
15834;DHT22;8017;50.812;4.934;2022-07-05T08:00:30;20.50;99.90
15834;DHT22;8017;50.812;4.934;2022-07-05T08:03:32;20.50;99.90
15834;DHT22;8017;50.812;4.934;2022-07-05T08:06:34;20.50;99.90
15834;DHT22;8017;50.812;4.934;2022-07-05T08:09:36;20.50;99.90
15834;DHT22;8017;50.812;4.934;2022-07-05T08:12:38;20.50;99.90
15834;DHT22;8017;50.812;4.934;2022-07-05T08:15:41;20.70;99.90
15834;DHT22;8017;50.812;4.934;2022-07-05T08:18:43;20.80;99.90
15834;DHT22;8017;50.812;4.934;2022-07-05T08:22:02;20.90;99.90
15834;DHT22;8017;50.812;4.934;2022-07-05T08:25:05;20.90;99.90
15834;DHT22;8017;50.812;4.934;2022-07-05T08:28:07;20.80;99.90
15834;DHT22;8017;50.812;4.934;2022-07-05T08:31:10;20.70;99.90
15834;DHT22;8017;50.812;4.934;2022-07-05T08:34:13;20.90;99.90
15834;DHT22;8017;50.812;4.934;2022-07-05T08:37:15;21.00;99.90
15834;DHT22;8017;50.812;4.934;2022-07-05T08:40:19;20.90;99.90
15834;DHT22;8017;50.812;4.934;2022-07-05T08:43:24;20.80;99.90
15834;DHT22;8017;50.812;4.934;2022-07-05T08:46:31;20.90;99.90
15834;DHT22;8017;50.812;4.934;2022-07-05T08:49:33;21.00;99.90
15834;DHT22;8017;50.812;4.934;2022-07-05T08:52:36;21.00;99.90
15834;DHT22;8017;50.812;4.934;2022-07-05T08:55:40;20.80;99.90
15834;DHT22;8017;50.812;4.934;2022-07-05T08:58:42;20.80;99.90
15834;DHT22;8017;50.812;4.934;2022-07-05T09:01:47;21.00;99.90
15834;DHT22;8017;50.812;4.934;2022-07-05T09:04:50;21.00;99.90
15834;DHT22;8017;50.812;4.934;2022-07-05T09:07:58;21.00;99.90
15834;DHT22;8017;50.812;4.934;2022-07-05T09:11:01;21.30;99.90
15834;DHT22;8017;50.812;4.934;2022-07-05T09:14:06;21.60;99.90
15834;DHT22;8017;50.812;4.934;2022-07-05T09:17:09;21.70;99.90
15834;DHT22;8017;50.812;4.934;2022-07-05T09:20:13;22.00;99.90
15834;DHT22;8017;50.812;4.934;2022-07-05T09:23:20;22.20;99.90
15834;DHT22;8017;50.812;4.934;2022-07-05T09:26:30;22.60;99.90
15834;DHT22;8017;50.812;4.934;2022-07-05T09:29:32;22.80;99.90
15834;DHT22;8017;50.812;4.934;2022-07-05T09:32:37;22.80;99.90
15834;DHT22;8017;50.812;4.934;2022-07-05T09:35:40;22.80;99.90
15834;DHT22;8017;50.812;4.934;2022-07-05T09:38:49;23.00;99.90
15834;DHT22;8017;50.812;4.934;2022-07-05T09:42:11;23.00;99.90
15834;DHT22;8017;50.812;4.934;2022-07-05T09:45:21;23.20;99.90
15834;DHT22;8017;50.812;4.934;2022-07-05T09:48:26;23.30;99.90
15834;DHT22;8017;50.812;4.934;2022-07-05T09:51:28;23.40;99.90
15834;DHT22;8017;50.812;4.934;2022-07-05T09:54:30;23.70;99.90
15834;DHT22;8017;50.812;4.934;2022-07-05T09:57:33;24.00;99.90
15834;DHT22;8017;50.812;4.934;2022-07-05T10:00:35;24.10;99.90
15834;DHT22;8017;50.812;4.934;2022-07-05T10:03:51;24.00;99.90
15834;DHT22;8017;50.812;4.934;2022-07-05T10:06:53;23.90;99.90
15834;DHT22;8017;50.812;4.934;2022-07-05T10:09:54;23.90;99.90
15834;DHT22;8017;50.812;4.934;2022-07-05T10:12:58;24.00;99.90
15834;DHT22;8017;50.812;4.934;2022-07-05T10:16:00;23.70;99.90
15834;DHT22;8017;50.812;4.934;2022-07-05T10:19:06;23.70;99.90
15834;DHT22;8017;50.812;4.934;2022-07-05T10:22:09;23.60;99.90
15834;DHT22;8017;50.812;4.934;2022-07-05T10:25:13;23.60;99.90
15834;DHT22;8017;50.812;4.934;2022-07-05T10:28:16;23.40;99.90
15834;DHT22;8017;50.812;4.934;2022-07-05T10:31:19;23.60;99.90
15834;DHT22;8017;50.812;4.934;2022-07-05T10:34:22;23.80;99.90
15834;DHT22;8017;50.812;4.934;2022-07-05T10:37:26;24.00;99.90
15834;DHT22;8017;50.812;4.934;2022-07-05T10:40:30;24.00;99.90
15834;DHT22;8017;50.812;4.934;2022-07-05T10:43:32;24.30;99.90
15834;DHT22;8017;50.812;4.934;2022-07-05T10:46:38;24.60;99.90
15834;DHT22;8017;50.812;4.934;2022-07-05T10:49:43;24.70;99.90
15834;DHT22;8017;50.812;4.934;2022-07-05T10:53:03;24.60;99.90
15834;DHT22;8017;50.812;4.934;2022-07-05T10:56:11;24.50;99.90
15834;DHT22;8017;50.812;4.934;2022-07-05T10:59:13;24.60;99.90
15834;DHT22;8017;50.812;4.934;2022-07-05T11:02:15;24.60;99.90
15834;DHT22;8017;50.812;4.934;2022-07-05T11:05:18;24.50;99.90
15834;DHT22;8017;50.812;4.934;2022-07-05T11:08:20;24.80;99.90
15834;DHT22;8017;50.812;4.934;2022-07-05T11:11:24;24.80;99.90
15834;DHT22;8017;50.812;4.934;2022-07-05T11:14:39;24.70;99.90
15834;DHT22;8017;50.812;4.934;2022-07-05T11:17:41;24.60;99.90
15834;DHT22;8017;50.812;4.934;2022-07-05T11:20:44;24.60;99.90
15834;DHT22;8017;50.812;4.934;2022-07-05T11:23:46;24.70;99.90
15834;DHT22;8017;50.812;4.934;2022-07-05T11:26:49;24.60;99.90
15834;DHT22;8017;50.812;4.934;2022-07-05T11:29:54;24.80;99.90
15834;DHT22;8017;50.812;4.934;2022-07-05T11:32:58;24.90;99.90
15834;DHT22;8017;50.812;4.934;2022-07-05T11:36:03;24.70;99.90
15834;DHT22;8017;50.812;4.934;2022-07-05T11:39:13;25.10;99.90
15834;DHT22;8017;50.812;4.934;2022-07-05T11:42:19;25.60;99.90
15834;DHT22;8017;50.812;4.934;2022-07-05T11:45:21;25.60;99.90
15834;DHT22;8017;50.812;4.934;2022-07-05T11:48:25;25.60;99.90
15834;DHT22;8017;50.812;4.934;2022-07-05T11:51:29;25.30;99.90
15834;DHT22;8017;50.812;4.934;2022-07-05T11:54:33;25.20;99.90
15834;DHT22;8017;50.812;4.934;2022-07-05T11:57:35;25.10;99.90
15834;DHT22;8017;50.812;4.934;2022-07-05T12:00:37;25.30;99.90
15834;DHT22;8017;50.812;4.934;2022-07-05T12:03:40;25.40;99.90
15834;DHT22;8017;50.812;4.934;2022-07-05T12:06:44;25.60;99.90
15834;DHT22;8017;50.812;4.934;2022-07-05T12:09:51;25.40;99.90
15834;DHT22;8017;50.812;4.934;2022-07-05T12:13:11;25.10;99.90
15834;DHT22;8017;50.812;4.934;2022-07-05T12:16:14;25.30;99.90
15834;DHT22;8017;50.812;4.934;2022-07-05T12:19:25;25.60;99.90
15834;DHT22;8017;50.812;4.934;2022-07-05T12:22:30;25.20;99.90
15834;DHT22;8017;50.812;4.934;2022-07-05T12:25:32;25.20;99.90
15834;DHT22;8017;50.812;4.934;2022-07-05T12:28:35;25.20;99.90
15834;DHT22;8017;50.812;4.934;2022-07-05T12:31:37;24.90;99.90
15834;DHT22;8017;50.812;4.934;2022-07-05T12:34:39;24.60;99.90
15834;DHT22;8017;50.812;4.934;2022-07-05T12:37:44;24.80;99.90
15834;DHT22;8017;50.812;4.934;2022-07-05T12:40:46;25.20;99.90
15834;DHT22;8017;50.812;4.934;2022-07-05T12:43:50;25.50;99.90
15834;DHT22;8017;50.812;4.934;2022-07-05T12:47:04;25.70;99.90
15834;DHT22;8017;50.812;4.934;2022-07-05T12:50:06;25.90;99.90
15834;DHT22;8017;50.812;4.934;2022-07-05T12:53:11;26.10;99.90
15834;DHT22;8017;50.812;4.934;2022-07-05T12:56:31;26.10;99.90
15834;DHT22;8017;50.812;4.934;2022-07-05T12:59:57;25.80;99.90
15834;DHT22;8017;50.812;4.934;2022-07-05T13:02:59;25.50;99.90
15834;DHT22;8017;50.812;4.934;2022-07-05T13:06:01;25.10;99.90
15834;DHT22;8017;50.812;4.934;2022-07-05T13:09:05;25.20;99.90
15834;DHT22;8017;50.812;4.934;2022-07-05T13:12:09;25.70;99.90
15834;DHT22;8017;50.812;4.934;2022-07-05T13:15:11;25.70;99.90
15834;DHT22;8017;50.812;4.934;2022-07-05T13:18:23;25.60;99.90
15834;DHT22;8017;50.812;4.934;2022-07-05T13:21:25;25.40;99.90
15834;DHT22;8017;50.812;4.934;2022-07-05T13:24:28;25.20;99.90
15834;DHT22;8017;50.812;4.934;2022-07-05T13:27:30;25.40;99.90
15834;DHT22;8017;50.812;4.934;2022-07-05T13:30:32;25.70;99.90
15834;DHT22;8017;50.812;4.934;2022-07-05T13:33:34;26.10;99.90
15834;DHT22;8017;50.812;4.934;2022-07-05T13:36:36;26.00;99.90
15834;DHT22;8017;50.812;4.934;2022-07-05T13:39:39;25.50;99.90
15834;DHT22;8017;50.812;4.934;2022-07-05T13:42:41;25.20;99.90
15834;DHT22;8017;50.812;4.934;2022-07-05T13:45:43;24.80;99.90
15834;DHT22;8017;50.812;4.934;2022-07-05T13:48:44;24.60;99.90
15834;DHT22;8017;50.812;4.934;2022-07-05T13:51:46;24.50;99.90
15834;DHT22;8017;50.812;4.934;2022-07-05T13:54:50;24.40;99.90
15834;DHT22;8017;50.812;4.934;2022-07-05T13:57:51;24.40;99.90
15834;DHT22;8017;50.812;4.934;2022-07-05T14:00:53;24.20;99.90
15834;DHT22;8017;50.812;4.934;2022-07-05T14:03:56;23.90;99.90
15834;DHT22;8017;50.812;4.934;2022-07-05T14:06:59;24.30;99.90
15834;DHT22;8017;50.812;4.934;2022-07-05T14:10:02;24.90;99.90
15834;DHT22;8017;50.812;4.934;2022-07-05T14:13:04;24.80;99.90
15834;DHT22;8017;50.812;4.934;2022-07-05T14:16:07;24.50;99.90
15834;DHT22;8017;50.812;4.934;2022-07-05T14:19:09;24.30;99.90
15834;DHT22;8017;50.812;4.934;2022-07-05T14:22:10;24.30;99.90
15834;DHT22;8017;50.812;4.934;2022-07-05T14:25:14;24.30;99.90
15834;DHT22;8017;50.812;4.934;2022-07-05T14:28:15;24.40;99.90
15834;DHT22;8017;50.812;4.934;2022-07-05T14:31:17;24.80;99.90
15834;DHT22;8017;50.812;4.934;2022-07-05T14:34:19;24.80;99.90
15834;DHT22;8017;50.812;4.934;2022-07-05T14:37:21;24.50;99.90
15834;DHT22;8017;50.812;4.934;2022-07-05T14:40:25;24.30;99.90
15834;DHT22;8017;50.812;4.934;2022-07-05T14:43:27;24.10;99.90
15834;DHT22;8017;50.812;4.934;2022-07-05T14:46:29;24.00;99.90
15834;DHT22;8017;50.812;4.934;2022-07-05T14:49:31;24.10;99.90
15834;DHT22;8017;50.812;4.934;2022-07-05T14:52:33;24.00;99.90
15834;DHT22;8017;50.812;4.934;2022-07-05T14:55:36;23.70;99.90
15834;DHT22;8017;50.812;4.934;2022-07-05T14:58:38;23.90;99.90
15834;DHT22;8017;50.812;4.934;2022-07-05T15:01:40;23.80;99.90
15834;DHT22;8017;50.812;4.934;2022-07-05T15:04:42;24.10;99.90
15834;DHT22;8017;50.812;4.934;2022-07-05T15:07:44;24.30;99.90
15834;DHT22;8017;50.812;4.934;2022-07-05T15:10:47;24.30;99.90
15834;DHT22;8017;50.812;4.934;2022-07-05T15:13:49;23.90;99.90
15834;DHT22;8017;50.812;4.934;2022-07-05T15:16:52;23.90;99.90
15834;DHT22;8017;50.812;4.934;2022-07-05T15:19:54;23.60;99.90
15834;DHT22;8017;50.812;4.934;2022-07-05T15:22:56;23.80;99.90
15834;DHT22;8017;50.812;4.934;2022-07-05T15:25:59;24.00;99.90
15834;DHT22;8017;50.812;4.934;2022-07-05T15:29:03;23.90;99.90
15834;DHT22;8017;50.812;4.934;2022-07-05T15:32:05;24.30;99.90
15834;DHT22;8017;50.812;4.934;2022-07-05T15:35:08;24.60;99.90
15834;DHT22;8017;50.812;4.934;2022-07-05T15:38:10;24.80;99.90
15834;DHT22;8017;50.812;4.934;2022-07-05T15:41:13;24.60;99.90
15834;DHT22;8017;50.812;4.934;2022-07-05T15:44:15;24.60;99.90
15834;DHT22;8017;50.812;4.934;2022-07-05T15:47:16;24.50;99.90
15834;DHT22;8017;50.812;4.934;2022-07-05T15:50:18;24.60;99.90
15834;DHT22;8017;50.812;4.934;2022-07-05T15:53:20;24.20;99.90
15834;DHT22;8017;50.812;4.934;2022-07-05T15:56:24;24.70;99.90
15834;DHT22;8017;50.812;4.934;2022-07-05T15:59:25;24.70;99.90
15834;DHT22;8017;50.812;4.934;2022-07-05T16:02:27;24.80;99.90
15834;DHT22;8017;50.812;4.934;2022-07-05T16:05:29;24.80;99.90
15834;DHT22;8017;50.812;4.934;2022-07-05T16:08:31;24.70;99.90
15834;DHT22;8017;50.812;4.934;2022-07-05T16:11:35;24.30;99.90
15834;DHT22;8017;50.812;4.934;2022-07-05T16:14:36;24.20;99.90
15834;DHT22;8017;50.812;4.934;2022-07-05T16:17:38;24.20;99.90
15834;DHT22;8017;50.812;4.934;2022-07-05T16:20:40;24.00;99.90
15834;DHT22;8017;50.812;4.934;2022-07-05T16:23:44;24.30;99.90
15834;DHT22;8017;50.812;4.934;2022-07-05T16:26:48;25.00;99.90
15834;DHT22;8017;50.812;4.934;2022-07-05T16:29:50;25.30;99.90
15834;DHT22;8017;50.812;4.934;2022-07-05T16:32:52;25.70;99.90
15834;DHT22;8017;50.812;4.934;2022-07-05T16:35:53;25.30;99.90
15834;DHT22;8017;50.812;4.934;2022-07-05T16:38:56;25.00;99.90
15834;DHT22;8017;50.812;4.934;2022-07-05T16:41:59;24.90;99.90
15834;DHT22;8017;50.812;4.934;2022-07-05T16:45:01;24.80;99.90
15834;DHT22;8017;50.812;4.934;2022-07-05T16:48:04;24.90;99.90
15834;DHT22;8017;50.812;4.934;2022-07-05T16:51:06;25.10;99.90
15834;DHT22;8017;50.812;4.934;2022-07-05T16:54:08;25.20;99.90
15834;DHT22;8017;50.812;4.934;2022-07-05T16:57:11;25.40;99.90
15834;DHT22;8017;50.812;4.934;2022-07-05T17:00:14;25.30;99.90
15834;DHT22;8017;50.812;4.934;2022-07-05T17:03:16;25.30;99.90
15834;DHT22;8017;50.812;4.934;2022-07-05T17:06:18;24.90;99.90
15834;DHT22;8017;50.812;4.934;2022-07-05T17:09:20;24.70;99.90
15834;DHT22;8017;50.812;4.934;2022-07-05T17:12:23;24.40;99.90
15834;DHT22;8017;50.812;4.934;2022-07-05T17:15:26;24.50;99.90
15834;DHT22;8017;50.812;4.934;2022-07-05T17:18:28;24.80;99.90
15834;DHT22;8017;50.812;4.934;2022-07-05T17:21:30;25.30;99.90
15834;DHT22;8017;50.812;4.934;2022-07-05T17:24:32;25.10;99.90
15834;DHT22;8017;50.812;4.934;2022-07-05T17:27:35;24.40;99.90
15834;DHT22;8017;50.812;4.934;2022-07-05T17:30:37;24.00;99.90
15834;DHT22;8017;50.812;4.934;2022-07-05T17:33:39;23.80;99.90
15834;DHT22;8017;50.812;4.934;2022-07-05T17:36:42;24.20;99.90
15834;DHT22;8017;50.812;4.934;2022-07-05T17:39:44;24.30;99.90
15834;DHT22;8017;50.812;4.934;2022-07-05T17:42:47;24.40;99.90
15834;DHT22;8017;50.812;4.934;2022-07-05T17:45:49;25.20;99.90
15834;DHT22;8017;50.812;4.934;2022-07-05T17:48:52;25.00;99.90
15834;DHT22;8017;50.812;4.934;2022-07-05T17:51:56;24.60;99.90
15834;DHT22;8017;50.812;4.934;2022-07-05T17:54:58;24.30;99.90
15834;DHT22;8017;50.812;4.934;2022-07-05T17:58:02;24.60;99.90
15834;DHT22;8017;50.812;4.934;2022-07-05T18:01:06;24.70;99.90
15834;DHT22;8017;50.812;4.934;2022-07-05T18:04:08;25.20;99.90
15834;DHT22;8017;50.812;4.934;2022-07-05T18:07:10;25.20;99.90
15834;DHT22;8017;50.812;4.934;2022-07-05T18:10:12;25.20;99.90
15834;DHT22;8017;50.812;4.934;2022-07-05T18:13:15;24.80;99.90
15834;DHT22;8017;50.812;4.934;2022-07-05T18:16:17;25.20;99.90
15834;DHT22;8017;50.812;4.934;2022-07-05T18:19:21;25.30;99.90
15834;DHT22;8017;50.812;4.934;2022-07-05T18:22:23;25.30;99.90
15834;DHT22;8017;50.812;4.934;2022-07-05T18:25:25;25.30;99.90
15834;DHT22;8017;50.812;4.934;2022-07-05T18:28:28;25.30;99.90
15834;DHT22;8017;50.812;4.934;2022-07-05T18:31:30;24.80;99.90
15834;DHT22;8017;50.812;4.934;2022-07-05T18:34:32;24.60;99.90
15834;DHT22;8017;50.812;4.934;2022-07-05T18:37:34;24.30;99.90
15834;DHT22;8017;50.812;4.934;2022-07-05T18:40:37;24.20;99.90
15834;DHT22;8017;50.812;4.934;2022-07-05T18:43:40;23.00;99.90
15834;DHT22;8017;50.812;4.934;2022-07-05T18:46:42;22.20;99.90
15834;DHT22;8017;50.812;4.934;2022-07-05T18:49:44;21.20;99.90
15834;DHT22;8017;50.812;4.934;2022-07-05T18:52:46;20.70;99.90
15834;DHT22;8017;50.812;4.934;2022-07-05T18:55:48;20.60;99.90
15834;DHT22;8017;50.812;4.934;2022-07-05T18:58:52;20.50;99.90
15834;DHT22;8017;50.812;4.934;2022-07-05T19:01:56;20.30;99.90
15834;DHT22;8017;50.812;4.934;2022-07-05T19:04:58;20.10;99.90
15834;DHT22;8017;50.812;4.934;2022-07-05T19:08:00;19.80;99.90
15834;DHT22;8017;50.812;4.934;2022-07-05T19:11:19;19.70;99.90
15834;DHT22;8017;50.812;4.934;2022-07-05T19:14:40;19.70;99.90
15834;DHT22;8017;50.812;4.934;2022-07-05T19:17:42;19.60;99.90
15834;DHT22;8017;50.812;4.934;2022-07-05T19:20:44;19.40;99.90
15834;DHT22;8017;50.812;4.934;2022-07-05T19:23:46;19.20;99.90
15834;DHT22;8017;50.812;4.934;2022-07-05T19:26:48;19.00;99.90
15834;DHT22;8017;50.812;4.934;2022-07-05T19:29:51;18.80;99.90
15834;DHT22;8017;50.812;4.934;2022-07-05T19:32:53;18.70;99.90
15834;DHT22;8017;50.812;4.934;2022-07-05T19:35:55;18.50;99.90